createdAt,value
2022-09-26T00:00:33.216Z,8.3
2022-09-26T00:05:31.155Z,8
2022-09-26T00:10:29.056Z,7.9
2022-09-26T00:15:26.852Z,7.8
2022-09-26T00:20:24.998Z,7.7
2022-09-26T00:25:23.202Z,7.7
2022-09-26T00:30:21.352Z,7.6
2022-09-26T00:35:19.382Z,7.6
2022-09-26T00:40:17.482Z,7.5
2022-09-26T00:45:15.760Z,7.6
2022-09-26T00:50:13.864Z,7.5
2022-09-26T00:55:11.954Z,7.7
2022-09-26T01:00:10.314Z,7.9
2022-09-26T01:05:08.581Z,8.2
2022-09-26T01:10:07.374Z,9.1
2022-09-26T01:15:06.203Z,10
2022-09-26T01:20:04.767Z,10.2
2022-09-26T01:25:02.785Z,9.9
2022-09-26T01:30:00.662Z,9.7
2022-09-26T01:34:58.529Z,9.6
2022-09-26T01:39:56.712Z,9.7
2022-09-26T01:44:54.910Z,9.8
2022-09-26T01:49:52.988Z,9.8
2022-09-26T01:54:51.168Z,9.9
2022-09-26T01:59:49.373Z,10
2022-09-26T02:04:47.569Z,10.1
2022-09-26T02:09:45.765Z,10.1
2022-09-26T02:14:43.771Z,10.2
2022-09-26T02:19:41.848Z,10.1
2022-09-26T02:24:39.945Z,10.2
2022-09-26T02:29:37.882Z,10.1
2022-09-26T02:34:35.875Z,9.9
2022-09-26T02:39:33.728Z,9.6
2022-09-26T02:44:31.476Z,9.5
2022-09-26T02:49:29.646Z,9.6
2022-09-26T02:54:27.835Z,9.7
2022-09-26T02:59:25.934Z,9.9
2022-09-26T03:04:24.241Z,10.1
2022-09-26T03:09:22.401Z,10.2
2022-09-26T03:14:20.750Z,10.2
2022-09-26T03:19:18.805Z,10.2
2022-09-26T03:24:16.910Z,10.2
2022-09-26T03:29:14.917Z,10.2
2022-09-26T03:34:12.739Z,9.9
2022-09-26T03:39:10.662Z,9.6
2022-09-26T03:44:08.653Z,9.4
2022-09-26T03:49:06.759Z,9.2
2022-09-26T03:54:04.740Z,8.9
2022-09-26T03:59:02.571Z,8.9
2022-09-26T04:04:00.391Z,8.7
2022-09-26T04:08:58.671Z,8.6
2022-09-26T04:13:56.737Z,8.5
2022-09-26T04:18:55.059Z,8.4
2022-09-26T04:23:53.085Z,8.4
2022-09-26T04:28:51.192Z,8.4
2022-09-26T04:33:49.478Z,8.6
2022-09-26T04:38:47.581Z,8.8
2022-09-26T04:43:45.782Z,8.9
2022-09-26T04:48:43.883Z,9.1
2022-09-26T04:53:42.234Z,9.4
2022-09-26T04:58:40.477Z,9.5
2022-09-26T05:03:38.736Z,9.6
2022-09-26T05:08:37.092Z,9.9
2022-09-26T05:13:35.676Z,10.8
2022-09-26T05:18:34.660Z,11.8
2022-09-26T05:23:33.610Z,12.9
2022-09-26T05:28:32.480Z,13.7
2022-09-26T05:33:31.382Z,14.1
2022-09-26T05:38:29.264Z,13.9
2022-09-26T05:43:28.997Z,16
2022-09-26T05:48:31.399Z,21.1
2022-09-26T05:53:32.066Z,23.7
2022-09-26T05:58:32.081Z,25.5
2022-09-26T06:03:31.946Z,27.8
2022-09-26T06:08:31.891Z,29.8
2022-09-26T06:13:30.878Z,31
2022-09-26T06:18:29.506Z,32.1
2022-09-26T06:23:28.270Z,31.1
2022-09-26T06:28:22.955Z,28.4
2022-09-26T06:33:19.773Z,28.2
2022-09-26T06:38:18.770Z,28.4
2022-09-26T06:43:13.628Z,25.1
2022-09-26T06:48:13.653Z,26.9
2022-09-26T06:53:15.398Z,29.8
2022-09-26T06:58:12.287Z,29
2022-09-26T07:03:08.459Z,26.5
2022-09-26T07:08:04.838Z,25.1
2022-09-26T07:13:03.114Z,27.3
2022-09-26T07:18:06.677Z,32.7
2022-09-26T07:23:06.649Z,33.5
2022-09-26T07:28:03.455Z,32.7
2022-09-26T07:33:03.243Z,34.5
2022-09-26T07:37:58.127Z,29.8
2022-09-26T07:43:15.648Z,30.4
2022-09-26T07:47:54.630Z,30.5
2022-09-26T07:52:54.656Z,33.4
2022-09-26T07:57:51.806Z,31.4
2022-09-26T08:02:52.464Z,35
2022-09-26T08:07:53.455Z,37.4
2022-09-26T08:12:52.430Z,37.7
2022-09-26T08:17:48.872Z,36.9
2022-09-26T08:22:48.543Z,38.9
2022-09-26T08:27:48.096Z,40.1
2022-09-26T08:32:46.386Z,39.3
2022-09-26T08:37:45.490Z,40.3
2022-09-26T08:42:43.945Z,40.5
2022-09-26T08:47:41.888Z,41
2022-09-26T08:52:40.257Z,41.6
2022-09-26T08:57:38.673Z,41.4
2022-09-26T09:02:35.706Z,41.1
2022-09-26T09:07:33.771Z,41.1
2022-09-26T09:12:32.467Z,40.7
2022-09-26T09:17:28.465Z,38.9
2022-09-26T09:22:26.348Z,39.8
2022-09-26T09:32:22.781Z,39.8
2022-09-26T09:37:20.375Z,39.7
2022-09-26T09:42:20.055Z,41.1
2022-09-26T09:47:19.292Z,42.4
2022-09-26T09:52:17.094Z,42.2
2022-09-26T09:57:14.600Z,42.4
2022-09-26T10:02:13.432Z,43.5
2022-09-26T10:07:11.589Z,43.4
2022-09-26T10:12:09.253Z,42.4
2022-09-26T10:17:04.235Z,39
2022-09-26T10:22:00.920Z,38.8
2022-09-26T10:27:00.937Z,41.6
2022-09-26T10:32:00.796Z,43.1
2022-09-26T10:36:56.615Z,39.9
2022-09-26T10:41:52.476Z,37.3
2022-09-26T10:46:51.022Z,37.9
2022-09-26T10:51:47.807Z,36.3
2022-09-26T10:56:45.730Z,36.5
2022-09-26T11:01:44.972Z,38.7
2022-09-26T11:06:44.841Z,40
2022-09-26T11:11:43.111Z,39.6
2022-09-26T11:16:41.086Z,40.3
2022-09-26T11:21:38.623Z,38.3
2022-09-26T11:26:38.384Z,40.9
2022-09-26T11:31:37.233Z,41.3
2022-09-26T11:36:35.607Z,42.3
2022-09-26T11:41:34.009Z,42.6
2022-09-26T11:46:31.315Z,41.5
2022-09-26T11:51:29.128Z,40.8
2022-09-26T11:56:25.349Z,37.2
2022-09-26T12:01:20.440Z,34.3
2022-09-26T12:06:17.676Z,33.1
2022-09-26T12:11:14.621Z,32.4
2022-09-26T12:16:12.925Z,32.9
2022-09-26T12:21:10.306Z,31.7
2022-09-26T12:26:07.474Z,30.6
2022-09-26T12:31:05.190Z,30.2
2022-09-26T12:36:02.728Z,29.6
2022-09-26T12:41:01.192Z,29.9
2022-09-26T12:45:58.777Z,29.3
2022-09-26T12:50:56.692Z,28.9
2022-09-26T12:55:54.656Z,28.8
2022-09-26T13:00:52.715Z,28.8
2022-09-26T13:05:50.830Z,28.1
2022-09-26T13:10:48.498Z,27.2
2022-09-26T13:15:45.713Z,26.6
2022-09-26T13:20:43.410Z,26.4
2022-09-26T13:25:43.939Z,26.1
2022-09-26T13:30:39.322Z,25.8
2022-09-26T13:35:37.574Z,25.6
2022-09-26T13:40:35.865Z,25.9
2022-09-26T13:45:34.091Z,25.7
2022-09-26T13:50:32.010Z,25.6
2022-09-26T13:55:29.817Z,25.5
2022-09-26T14:00:27.960Z,25.5
2022-09-26T14:05:26.318Z,25.7
2022-09-26T14:10:24.980Z,25.3
2022-09-26T14:15:22.999Z,25
2022-09-26T14:20:20.980Z,24.7
2022-09-26T14:25:19.145Z,24.8
2022-09-26T14:30:17.519Z,24.7
2022-09-26T14:35:15.725Z,24.7
2022-09-26T14:40:14.389Z,24.5
2022-09-26T14:45:12.361Z,24.2
2022-09-26T14:50:10.511Z,24
2022-09-26T14:55:08.818Z,24.1
2022-09-26T15:00:06.956Z,23.9
2022-09-26T15:05:05.283Z,23.5
2022-09-26T15:10:03.198Z,23
2022-09-26T15:15:04.850Z,22.6
2022-09-26T15:19:59.305Z,22.4
2022-09-26T15:24:57.589Z,22.2
2022-09-26T15:29:55.603Z,21.9
2022-09-26T15:34:53.658Z,21.6
2022-09-26T15:39:51.750Z,21.4
2022-09-26T15:44:49.619Z,21
2022-09-26T15:49:47.568Z,20.7
2022-09-26T15:54:45.706Z,20.3
2022-09-26T15:59:43.906Z,20
2022-09-26T16:04:41.873Z,20
2022-09-26T16:09:39.856Z,19.8
2022-09-26T16:14:37.841Z,19.6
2022-09-26T16:19:35.787Z,19.4
2022-09-26T16:24:33.776Z,19.1
2022-09-26T16:29:31.925Z,19.1
2022-09-26T16:34:29.770Z,18.9
2022-09-26T16:39:27.889Z,18.7
2022-09-26T16:44:30.552Z,18.4
2022-09-26T16:49:23.875Z,18.2
2022-09-26T16:54:21.990Z,17.9
2022-09-26T16:59:19.884Z,17.6
2022-09-26T17:04:17.760Z,17.4
2022-09-26T17:09:16.338Z,17.2
2022-09-26T17:14:14.592Z,17.1
2022-09-26T17:19:12.623Z,17.1
2022-09-26T17:24:10.880Z,17.2
2022-09-26T17:29:09.086Z,17.4
2022-09-26T17:34:07.966Z,17.5
2022-09-26T17:39:06.079Z,17.5
2022-09-26T17:44:04.200Z,17.6
2022-09-26T17:49:02.601Z,17.8
2022-09-26T17:54:00.696Z,17.8
2022-09-26T17:58:58.754Z,17.9
2022-09-26T18:03:56.932Z,17.9
2022-09-26T18:08:55.159Z,18
2022-09-26T18:13:53.397Z,18
2022-09-26T18:18:51.372Z,17.6
2022-09-26T18:23:49.317Z,17.2
2022-09-26T18:28:47.353Z,16.9
2022-09-26T18:33:45.154Z,16.7
2022-09-26T18:38:43.385Z,16.5
2022-09-26T18:43:41.542Z,16.3
2022-09-26T18:48:39.703Z,16.2
2022-09-26T18:53:37.981Z,16
2022-09-26T18:58:36.124Z,15.9
2022-09-26T19:03:34.397Z,15.8
2022-09-26T19:08:32.831Z,15.7
2022-09-26T19:13:30.862Z,15.6
2022-09-26T19:18:29.198Z,15.5
2022-09-26T19:23:27.336Z,15.4
2022-09-26T19:28:25.456Z,15.4
2022-09-26T19:33:23.689Z,15.4
2022-09-26T19:38:21.859Z,15.3
2022-09-26T19:43:20.283Z,15.3
2022-09-26T19:48:18.332Z,15.4
2022-09-26T19:53:16.428Z,15.3
2022-09-26T19:58:14.725Z,15.4
2022-09-26T20:03:12.684Z,15.3
2022-09-26T20:08:11.166Z,15.3
2022-09-26T20:13:09.288Z,15.2
2022-09-26T20:18:07.582Z,15.3
2022-09-26T20:23:05.590Z,15.2
2022-09-26T20:28:03.812Z,15.2
2022-09-26T20:33:02.114Z,15.2
2022-09-26T20:38:00.170Z,15.2
2022-09-26T20:42:58.321Z,15.2
2022-09-26T20:47:56.446Z,15.2
2022-09-26T20:52:54.637Z,15.1
2022-09-26T20:57:52.731Z,15.1
2022-09-26T21:02:50.755Z,15.1
2022-09-26T21:07:48.880Z,15.1
2022-09-26T21:12:47.091Z,15.2
2022-09-26T21:17:48.188Z,15.2
2022-09-26T21:22:45.882Z,15.2
2022-09-26T21:27:44.019Z,15.6
2022-09-26T21:32:42.410Z,15.5
2022-09-26T21:37:40.524Z,15.6
2022-09-26T21:42:38.638Z,15.6
2022-09-26T21:47:36.831Z,15.6
2022-09-26T21:52:34.851Z,15.5
2022-09-26T21:57:32.826Z,15.5
2022-09-26T22:02:31.001Z,15.4
2022-09-26T22:07:29.224Z,15.5
2022-09-26T22:12:27.382Z,15.2
2022-09-26T22:17:25.379Z,15.4
2022-09-26T22:22:23.423Z,15.3
2022-09-26T22:27:21.644Z,15.4
2022-09-26T22:32:19.820Z,15.4
2022-09-26T22:37:17.964Z,15.2
2022-09-26T22:42:16.011Z,15.3
2022-09-26T22:47:14.278Z,15.2
2022-09-26T22:52:12.512Z,15.1
2022-09-26T22:57:10.633Z,15.1
2022-09-26T23:02:08.861Z,15
2022-09-26T23:07:07.019Z,15.2
2022-09-26T23:12:05.093Z,15.3
2022-09-26T23:17:03.467Z,15.2
2022-09-26T23:22:01.436Z,15.1
2022-09-26T23:26:59.678Z,14.9
2022-09-26T23:31:57.745Z,15.1
2022-09-26T23:36:55.946Z,15.1
2022-09-26T23:41:53.928Z,15.1
2022-09-26T23:46:52.077Z,15.1
2022-09-26T23:51:50.396Z,15.1
2022-09-26T23:56:48.715Z,15.1
